Granville, Indiana
Current Conditions -  °F | °C
As of 2:53 PM on Thursday 30 Oct 2014 (Local Time) from KMIE Reporting Station
Scattered Clouds Scattered Clouds  
Wind Chill: 50°   Ceiling: Unl
Heat Index: 50°   Visibility: 10mi
Dew Point: 33°   Wind: 3mph
Humidity: 52%   Direction: 350°N
Pressure: 30.1"   Gusts: NA
Location:  40.3453°N, 85.3353°W
Report Text: KMIE 301853Z 35003KT 10SM SCT038 10/01 A3010 RMK AO2 SLP192 T01000006
Loading
Personal Weather Stations






























Interactive Weather Map New forecast layout! Learn more

10-Day Weather Forecast

Advertisements
Track Severe Weather on mobile